sensor_id;sensor_type;location;lat;lon;timestamp;pressure;altitude;pressure_sealevel;temperature;humidity
61571;BME280;47463;49.884;10.010;2023-04-28T00:00:01;101800;;;9.1;63
61571;BME280;47463;49.884;10.010;2023-04-28T00:05:01;101810;;;9.1;63
61571;BME280;47463;49.884;10.010;2023-04-28T00:10:01;101810;;;9.1;63
61571;BME280;47463;49.884;10.010;2023-04-28T00:15:01;101790;;;9.2;63
61571;BME280;47463;49.884;10.010;2023-04-28T00:20:01;101800;;;9.1;63
61571;BME280;47463;49.884;10.010;2023-04-28T00:25:01;101790;;;9.1;63
61571;BME280;47463;49.884;10.010;2023-04-28T00:30:01;101780;;;9.1;63
61571;BME280;47463;49.884;10.010;2023-04-28T00:35:01;101770;;;9.1;63
61571;BME280;47463;49.884;10.010;2023-04-28T00:40:01;101770;;;9.1;63
61571;BME280;47463;49.884;10.010;2023-04-28T00:45:01;101760;;;9;63
61571;BME280;47463;49.884;10.010;2023-04-28T00:50:01;101750;;;9;63
61571;BME280;47463;49.884;10.010;2023-04-28T00:55:01;101750;;;9;63
61571;BME280;47463;49.884;10.010;2023-04-28T01:00:01;101730;;;9.1;62
61571;BME280;47463;49.884;10.010;2023-04-28T01:05:01;101740;;;9.1;63
61571;BME280;47463;49.884;10.010;2023-04-28T01:10:01;101740;;;9;63
61571;BME280;47463;49.884;10.010;2023-04-28T01:15:01;101730;;;9;63
61571;BME280;47463;49.884;10.010;2023-04-28T01:20:01;101720;;;9;63
61571;BME280;47463;49.884;10.010;2023-04-28T01:25:01;101720;;;9;63
61571;BME280;47463;49.884;10.010;2023-04-28T01:30:01;101720;;;9;64
61571;BME280;47463;49.884;10.010;2023-04-28T01:35:01;101720;;;9;64
61571;BME280;47463;49.884;10.010;2023-04-28T01:40:01;101710;;;9;64
61571;BME280;47463;49.884;10.010;2023-04-28T01:45:01;101710;;;9;64
61571;BME280;47463;49.884;10.010;2023-04-28T01:50:01;101700;;;9;64
61571;BME280;47463;49.884;10.010;2023-04-28T01:55:01;101700;;;8.9;64
61571;BME280;47463;49.884;10.010;2023-04-28T02:00:01;101690;;;8.9;64
61571;BME280;47463;49.884;10.010;2023-04-28T02:05:01;101690;;;8.9;64
61571;BME280;47463;49.884;10.010;2023-04-28T02:10:01;101690;;;8.9;64
61571;BME280;47463;49.884;10.010;2023-04-28T02:15:01;101690;;;8.9;64
61571;BME280;47463;49.884;10.010;2023-04-28T02:20:01;101680;;;8.9;65
61571;BME280;47463;49.884;10.010;2023-04-28T02:25:01;101680;;;8.8;65
61571;BME280;47463;49.884;10.010;2023-04-28T02:30:01;101670;;;8.8;65
61571;BME280;47463;49.884;10.010;2023-04-28T02:35:01;101670;;;8.8;65
61571;BME280;47463;49.884;10.010;2023-04-28T02:40:01;101680;;;8.8;65
61571;BME280;47463;49.884;10.010;2023-04-28T02:45:01;101650;;;8.7;66
61571;BME280;47463;49.884;10.010;2023-04-28T02:50:01;101650;;;8.7;66
61571;BME280;47463;49.884;10.010;2023-04-28T02:55:01;101650;;;8.7;66
61571;BME280;47463;49.884;10.010;2023-04-28T03:00:01;101640;;;8.7;66
61571;BME280;47463;49.884;10.010;2023-04-28T03:05:01;101640;;;8.7;66
61571;BME280;47463;49.884;10.010;2023-04-28T03:10:01;101640;;;8.7;66
61571;BME280;47463;49.884;10.010;2023-04-28T03:15:01;101620;;;8.7;66
61571;BME280;47463;49.884;10.010;2023-04-28T03:20:01;101630;;;8.6;67
61571;BME280;47463;49.884;10.010;2023-04-28T03:25:01;101630;;;8.6;67
61571;BME280;47463;49.884;10.010;2023-04-28T03:30:01;101620;;;8.6;67
61571;BME280;47463;49.884;10.010;2023-04-28T03:35:01;101620;;;8.6;67
61571;BME280;47463;49.884;10.010;2023-04-28T03:40:01;101620;;;8.6;67
61571;BME280;47463;49.884;10.010;2023-04-28T03:45:01;101620;;;8.6;67
61571;BME280;47463;49.884;10.010;2023-04-28T03:50:01;101620;;;8.7;67
61571;BME280;47463;49.884;10.010;2023-04-28T03:55:01;101630;;;8.7;68
61571;BME280;47463;49.884;10.010;2023-04-28T04:00:01;101620;;;8.6;68
61571;BME280;47463;49.884;10.010;2023-04-28T04:05:01;101620;;;8.5;70
61571;BME280;47463;49.884;10.010;2023-04-28T04:10:01;101610;;;8.4;72
61571;BME280;47463;49.884;10.010;2023-04-28T04:15:01;101610;;;8.3;74
61571;BME280;47463;49.884;10.010;2023-04-28T04:20:01;101590;;;8.1;75
61571;BME280;47463;49.884;10.010;2023-04-28T04:25:01;101610;;;8.1;76
61571;BME280;47463;49.884;10.010;2023-04-28T04:30:01;101610;;;8.1;76
61571;BME280;47463;49.884;10.010;2023-04-28T04:35:01;101620;;;8;77
61571;BME280;47463;49.884;10.010;2023-04-28T04:40:01;101620;;;8;77
61571;BME280;47463;49.884;10.010;2023-04-28T04:45:01;101610;;;8;78
61571;BME280;47463;49.884;10.010;2023-04-28T04:50:01;101600;;;8;77
61571;BME280;47463;49.884;10.010;2023-04-28T04:55:01;101590;;;8;77
61571;BME280;47463;49.884;10.010;2023-04-28T05:00:01;101590;;;8;77
61571;BME280;47463;49.884;10.010;2023-04-28T05:05:01;101570;;;8.1;77
61571;BME280;47463;49.884;10.010;2023-04-28T05:10:01;101570;;;8.1;77
61571;BME280;47463;49.884;10.010;2023-04-28T05:15:01;101570;;;8.1;76
61571;BME280;47463;49.884;10.010;2023-04-28T05:20:01;101570;;;8.1;75
61571;BME280;47463;49.884;10.010;2023-04-28T05:25:01;101580;;;8.2;76
61571;BME280;47463;49.884;10.010;2023-04-28T05:30:01;101560;;;8.2;76
61571;BME280;47463;49.884;10.010;2023-04-28T05:35:01;101560;;;8.2;77
61571;BME280;47463;49.884;10.010;2023-04-28T05:40:01;101560;;;8.3;77
61571;BME280;47463;49.884;10.010;2023-04-28T05:45:01;101560;;;8.3;78
61571;BME280;47463;49.884;10.010;2023-04-28T05:50:01;101560;;;8.3;78
61571;BME280;47463;49.884;10.010;2023-04-28T05:55:01;101570;;;8.3;79
61571;BME280;47463;49.884;10.010;2023-04-28T06:00:01;101570;;;8.4;79
61571;BME280;47463;49.884;10.010;2023-04-28T06:05:01;101570;;;8.5;79
61571;BME280;47463;49.884;10.010;2023-04-28T06:10:01;101570;;;8.6;79
61571;BME280;47463;49.884;10.010;2023-04-28T06:15:01;101580;;;8.7;79
61571;BME280;47463;49.884;10.010;2023-04-28T06:20:01;101580;;;8.7;78
61571;BME280;47463;49.884;10.010;2023-04-28T06:25:01;101560;;;8.7;78
61571;BME280;47463;49.884;10.010;2023-04-28T06:30:01;101550;;;8.7;79
61571;BME280;47463;49.884;10.010;2023-04-28T06:35:01;101570;;;8.7;80
61571;BME280;47463;49.884;10.010;2023-04-28T06:40:01;101580;;;8.6;82
61571;BME280;47463;49.884;10.010;2023-04-28T06:45:01;101560;;;8.5;81
61571;BME280;47463;49.884;10.010;2023-04-28T06:50:01;101560;;;8.5;83
61571;BME280;47463;49.884;10.010;2023-04-28T06:55:01;101570;;;8.5;83
61571;BME280;47463;49.884;10.010;2023-04-28T07:00:01;101570;;;8.5;84
61571;BME280;47463;49.884;10.010;2023-04-28T07:05:01;101570;;;8.4;84
61571;BME280;47463;49.884;10.010;2023-04-28T07:10:01;101600;;;8.4;85
61571;BME280;47463;49.884;10.010;2023-04-28T07:15:01;101590;;;8.2;85
61571;BME280;47463;49.884;10.010;2023-04-28T07:20:01;101590;;;8.2;86
61571;BME280;47463;49.884;10.010;2023-04-28T07:25:01;101590;;;8.1;86
61571;BME280;47463;49.884;10.010;2023-04-28T07:30:01;101590;;;8.1;86
61571;BME280;47463;49.884;10.010;2023-04-28T07:35:01;101610;;;8.1;86
61571;BME280;47463;49.884;10.010;2023-04-28T07:40:01;101590;;;8.1;87
61571;BME280;47463;49.884;10.010;2023-04-28T07:45:01;101580;;;8;88
61571;BME280;47463;49.884;10.010;2023-04-28T07:50:01;101580;;;8.1;88
61571;BME280;47463;49.884;10.010;2023-04-28T07:55:01;101570;;;8.2;88
61571;BME280;47463;49.884;10.010;2023-04-28T08:00:01;101580;;;8.3;88
61571;BME280;47463;49.884;10.010;2023-04-28T08:05:01;101590;;;8.3;88
61571;BME280;47463;49.884;10.010;2023-04-28T08:10:01;101580;;;8.3;88
61571;BME280;47463;49.884;10.010;2023-04-28T08:15:01;101570;;;8.4;89
61571;BME280;47463;49.884;10.010;2023-04-28T08:20:01;101580;;;8.4;89
61571;BME280;47463;49.884;10.010;2023-04-28T08:25:01;101580;;;8.5;89
61571;BME280;47463;49.884;10.010;2023-04-28T08:30:01;101580;;;8.5;89
61571;BME280;47463;49.884;10.010;2023-04-28T08:35:01;101580;;;8.6;89
61571;BME280;47463;49.884;10.010;2023-04-28T08:40:01;101570;;;8.6;89
61571;BME280;47463;49.884;10.010;2023-04-28T08:45:01;101580;;;8.7;90
61571;BME280;47463;49.884;10.010;2023-04-28T08:50:01;101580;;;8.7;90
61571;BME280;47463;49.884;10.010;2023-04-28T08:55:04;101560;;;8.8;90
61571;BME280;47463;49.884;10.010;2023-04-28T09:00:01;101560;;;8.7;90
61571;BME280;47463;49.884;10.010;2023-04-28T09:05:01;101550;;;8.9;90
61571;BME280;47463;49.884;10.010;2023-04-28T09:10:17;101550;;;9;90
61571;BME280;47463;49.884;10.010;2023-04-28T09:15:01;101550;;;9;90
61571;BME280;47463;49.884;10.010;2023-04-28T09:20:01;101530;;;9.2;90
61571;BME280;47463;49.884;10.010;2023-04-28T09:25:09;101540;;;9.3;90
61571;BME280;47463;49.884;10.010;2023-04-28T09:30:01;101550;;;9.5;89
61571;BME280;47463;49.884;10.010;2023-04-28T09:35:01;101540;;;9.6;89
61571;BME280;47463;49.884;10.010;2023-04-28T09:40:02;101540;;;9.7;89
61571;BME280;47463;49.884;10.010;2023-04-28T09:45:01;101540;;;9.7;89
61571;BME280;47463;49.884;10.010;2023-04-28T09:50:02;101540;;;9.8;89
61571;BME280;47463;49.884;10.010;2023-04-28T09:55:01;101540;;;9.9;89
61571;BME280;47463;49.884;10.010;2023-04-28T10:00:01;101530;;;10;89
61571;BME280;47463;49.884;10.010;2023-04-28T10:05:01;101530;;;10;89
61571;BME280;47463;49.884;10.010;2023-04-28T10:10:01;101530;;;10.2;89
61571;BME280;47463;49.884;10.010;2023-04-28T10:15:01;101520;;;10.4;89
61571;BME280;47463;49.884;10.010;2023-04-28T10:20:01;101530;;;10.5;88
61571;BME280;47463;49.884;10.010;2023-04-28T10:25:07;101520;;;10.6;88
61571;BME280;47463;49.884;10.010;2023-04-28T10:30:08;101520;;;10.8;89
61571;BME280;47463;49.884;10.010;2023-04-28T10:36:06;101520;;;10.8;88
61571;BME280;47463;49.884;10.010;2023-04-28T10:40:32;101530;;;10.9;89
61571;BME280;47463;49.884;10.010;2023-04-28T10:45:01;101520;;;10.9;89
61571;BME280;47463;49.884;10.010;2023-04-28T10:50:06;101510;;;10.8;89
61571;BME280;47463;49.884;10.010;2023-04-28T10:55:32;101510;;;10.9;89
61571;BME280;47463;49.884;10.010;2023-04-28T11:00:25;101510;;;11.1;90
61571;BME280;47463;49.884;10.010;2023-04-28T11:05:16;101510;;;11.2;90
61571;BME280;47463;49.884;10.010;2023-04-28T11:10:01;101510;;;11.3;90
61571;BME280;47463;49.884;10.010;2023-04-28T11:15:16;101520;;;11.3;89
61571;BME280;47463;49.884;10.010;2023-04-28T11:20:01;101510;;;11.2;89
61571;BME280;47463;49.884;10.010;2023-04-28T11:25:01;101520;;;11.1;89
61571;BME280;47463;49.884;10.010;2023-04-28T11:30:01;101510;;;11.2;90
61571;BME280;47463;49.884;10.010;2023-04-28T11:35:01;101510;;;11.2;89
61571;BME280;47463;49.884;10.010;2023-04-28T11:40:08;101510;;;11.2;89
61571;BME280;47463;49.884;10.010;2023-04-28T11:45:01;101500;;;11.4;90
61571;BME280;47463;49.884;10.010;2023-04-28T11:50:01;101500;;;11.6;90
61571;BME280;47463;49.884;10.010;2023-04-28T11:55:01;101500;;;12.1;90
61571;BME280;47463;49.884;10.010;2023-04-28T12:00:16;101490;;;12.1;89
61571;BME280;47463;49.884;10.010;2023-04-28T12:05:04;101490;;;12.1;88
61571;BME280;47463;49.884;10.010;2023-04-28T12:10:16;101480;;;12.4;88
61571;BME280;47463;49.884;10.010;2023-04-28T12:15:01;101480;;;12.2;87
61571;BME280;47463;49.884;10.010;2023-04-28T12:20:02;101490;;;12.4;88
61571;BME280;47463;49.884;10.010;2023-04-28T12:25:02;101500;;;12.4;88
61571;BME280;47463;49.884;10.010;2023-04-28T12:30:01;101490;;;12.6;88
61571;BME280;47463;49.884;10.010;2023-04-28T12:35:01;101490;;;12.6;88
61571;BME280;47463;49.884;10.010;2023-04-28T12:40:01;101490;;;13;87
61571;BME280;47463;49.884;10.010;2023-04-28T12:45:01;101490;;;13.1;86
61571;BME280;47463;49.884;10.010;2023-04-28T12:50:01;101490;;;13.4;86
61571;BME280;47463;49.884;10.010;2023-04-28T12:55:01;101480;;;13.6;86
61571;BME280;47463;49.884;10.010;2023-04-28T13:00:01;101490;;;13.8;85
61571;BME280;47463;49.884;10.010;2023-04-28T13:05:01;101490;;;14.2;84
61571;BME280;47463;49.884;10.010;2023-04-28T13:10:01;101480;;;14.3;84
61571;BME280;47463;49.884;10.010;2023-04-28T13:15:01;101480;;;14.7;83
61571;BME280;47463;49.884;10.010;2023-04-28T13:20:01;101480;;;14.3;82
61571;BME280;47463;49.884;10.010;2023-04-28T13:25:01;101480;;;14.3;83
61571;BME280;47463;49.884;10.010;2023-04-28T13:30:01;101480;;;14.4;82
61571;BME280;47463;49.884;10.010;2023-04-28T13:35:01;101470;;;14.4;82
61571;BME280;47463;49.884;10.010;2023-04-28T13:40:01;101460;;;14.3;81
61571;BME280;47463;49.884;10.010;2023-04-28T13:45:01;101440;;;14.4;81
61571;BME280;47463;49.884;10.010;2023-04-28T13:50:01;101440;;;14.6;81
61571;BME280;47463;49.884;10.010;2023-04-28T13:55:01;101440;;;14.9;80
61571;BME280;47463;49.884;10.010;2023-04-28T14:00:01;101430;;;14.9;79
61571;BME280;47463;49.884;10.010;2023-04-28T14:05:01;101420;;;15.4;79
61571;BME280;47463;49.884;10.010;2023-04-28T14:10:01;101420;;;15.4;79
61571;BME280;47463;49.884;10.010;2023-04-28T14:15:01;101420;;;15.2;79
61571;BME280;47463;49.884;10.010;2023-04-28T14:20:01;101420;;;15.1;79
61571;BME280;47463;49.884;10.010;2023-04-28T14:25:01;101420;;;14.8;81
61571;BME280;47463;49.884;10.010;2023-04-28T14:30:01;101400;;;14.6;81
61571;BME280;47463;49.884;10.010;2023-04-28T14:35:01;101390;;;15;81
61571;BME280;47463;49.884;10.010;2023-04-28T14:40:01;101380;;;15;80
61571;BME280;47463;49.884;10.010;2023-04-28T14:45:01;101380;;;15.3;80
61571;BME280;47463;49.884;10.010;2023-04-28T14:50:01;101380;;;15.2;80
61571;BME280;47463;49.884;10.010;2023-04-28T14:55:01;101370;;;15.2;81
61571;BME280;47463;49.884;10.010;2023-04-28T15:00:01;101380;;;15.3;80
61571;BME280;47463;49.884;10.010;2023-04-28T15:05:01;101370;;;15.3;80
61571;BME280;47463;49.884;10.010;2023-04-28T15:10:01;101380;;;15.3;81
61571;BME280;47463;49.884;10.010;2023-04-28T15:15:01;101380;;;15.6;78
61571;BME280;47463;49.884;10.010;2023-04-28T15:20:01;101370;;;15.7;78
61571;BME280;47463;49.884;10.010;2023-04-28T15:25:01;101350;;;15.6;78
61571;BME280;47463;49.884;10.010;2023-04-28T15:30:01;101370;;;15.6;78
61571;BME280;47463;49.884;10.010;2023-04-28T15:35:01;101380;;;15.5;77
61571;BME280;47463;49.884;10.010;2023-04-28T15:40:01;101380;;;15.3;78
61571;BME280;47463;49.884;10.010;2023-04-28T15:45:01;101370;;;15.3;78
61571;BME280;47463;49.884;10.010;2023-04-28T15:50:01;101380;;;15.3;78
61571;BME280;47463;49.884;10.010;2023-04-28T15:55:01;101360;;;15.2;79
61571;BME280;47463;49.884;10.010;2023-04-28T16:00:01;101350;;;15.2;79
61571;BME280;47463;49.884;10.010;2023-04-28T16:05:01;101330;;;15.2;79
61571;BME280;47463;49.884;10.010;2023-04-28T16:10:01;101340;;;15.2;79
61571;BME280;47463;49.884;10.010;2023-04-28T16:15:01;101330;;;15.3;79
61571;BME280;47463;49.884;10.010;2023-04-28T16:20:01;101320;;;15.2;79
61571;BME280;47463;49.884;10.010;2023-04-28T16:25:01;101330;;;15.1;79
61571;BME280;47463;49.884;10.010;2023-04-28T16:30:01;101340;;;15.1;79
61571;BME280;47463;49.884;10.010;2023-04-28T16:35:01;101330;;;15.2;80
61571;BME280;47463;49.884;10.010;2023-04-28T16:40:01;101310;;;15.2;81
61571;BME280;47463;49.884;10.010;2023-04-28T16:45:01;101310;;;15.2;81
61571;BME280;47463;49.884;10.010;2023-04-28T16:50:01;101310;;;15.2;81
61571;BME280;47463;49.884;10.010;2023-04-28T16:55:01;101300;;;15.2;81
61571;BME280;47463;49.884;10.010;2023-04-28T17:00:01;101300;;;15.2;81
61571;BME280;47463;49.884;10.010;2023-04-28T17:05:01;101300;;;15.2;81
61571;BME280;47463;49.884;10.010;2023-04-28T17:10:01;101290;;;15;84
61571;BME280;47463;49.884;10.010;2023-04-28T17:15:01;101290;;;14.9;84
61571;BME280;47463;49.884;10.010;2023-04-28T17:20:01;101290;;;14.8;85
61571;BME280;47463;49.884;10.010;2023-04-28T17:25:01;101300;;;14.8;85
61571;BME280;47463;49.884;10.010;2023-04-28T17:30:01;101310;;;14.7;84
61571;BME280;47463;49.884;10.010;2023-04-28T17:35:01;101320;;;14.7;85
61571;BME280;47463;49.884;10.010;2023-04-28T17:40:01;101320;;;14.6;85
61571;BME280;47463;49.884;10.010;2023-04-28T17:45:01;101330;;;14.6;85
61571;BME280;47463;49.884;10.010;2023-04-28T17:50:01;101320;;;14.5;85
61571;BME280;47463;49.884;10.010;2023-04-28T17:55:01;101320;;;14.3;86
61571;BME280;47463;49.884;10.010;2023-04-28T18:00:06;101330;;;14.2;86
61571;BME280;47463;49.884;10.010;2023-04-28T18:05:01;101350;;;14.2;86
61571;BME280;47463;49.884;10.010;2023-04-28T18:10:01;101360;;;14.1;86
61571;BME280;47463;49.884;10.010;2023-04-28T18:15:01;101360;;;14.1;86
61571;BME280;47463;49.884;10.010;2023-04-28T18:20:01;101350;;;14;86
61571;BME280;47463;49.884;10.010;2023-04-28T18:25:01;101330;;;13.9;86
61571;BME280;47463;49.884;10.010;2023-04-28T18:30:01;101340;;;13.8;87
61571;BME280;47463;49.884;10.010;2023-04-28T18:35:01;101340;;;13.6;87
61571;BME280;47463;49.884;10.010;2023-04-28T18:40:01;101330;;;13.4;88
61571;BME280;47463;49.884;10.010;2023-04-28T18:45:01;101330;;;13.2;89
61571;BME280;47463;49.884;10.010;2023-04-28T18:50:01;101330;;;13.1;90
61571;BME280;47463;49.884;10.010;2023-04-28T18:55:01;101340;;;13.1;90
61571;BME280;47463;49.884;10.010;2023-04-28T19:00:01;101350;;;13;90
61571;BME280;47463;49.884;10.010;2023-04-28T19:05:04;101360;;;12.9;90
61571;BME280;47463;49.884;10.010;2023-04-28T19:10:01;101360;;;12.9;90
61571;BME280;47463;49.884;10.010;2023-04-28T19:15:01;101360;;;12.9;91
61571;BME280;47463;49.884;10.010;2023-04-28T19:20:01;101370;;;12.8;91
61571;BME280;47463;49.884;10.010;2023-04-28T19:25:01;101370;;;12.7;91
61571;BME280;47463;49.884;10.010;2023-04-28T19:30:01;101380;;;12.4;91
61571;BME280;47463;49.884;10.010;2023-04-28T19:35:01;101380;;;12.2;91
61571;BME280;47463;49.884;10.010;2023-04-28T19:40:01;101390;;;12.1;91
61571;BME280;47463;49.884;10.010;2023-04-28T19:45:01;101400;;;11.9;91
61571;BME280;47463;49.884;10.010;2023-04-28T19:50:01;101410;;;11.8;92
61571;BME280;47463;49.884;10.010;2023-04-28T19:55:01;101420;;;11.6;92
61571;BME280;47463;49.884;10.010;2023-04-28T20:00:01;101420;;;11.5;92
61571;BME280;47463;49.884;10.010;2023-04-28T20:05:01;101410;;;11.6;93
61571;BME280;47463;49.884;10.010;2023-04-28T20:10:01;101420;;;11.4;92
61571;BME280;47463;49.884;10.010;2023-04-28T20:15:01;101420;;;11.2;92
61571;BME280;47463;49.884;10.010;2023-04-28T20:20:01;101430;;;11.5;93
61571;BME280;47463;49.884;10.010;2023-04-28T20:25:01;101440;;;11.8;94
61571;BME280;47463;49.884;10.010;2023-04-28T20:30:01;101440;;;11.7;93
61571;BME280;47463;49.884;10.010;2023-04-28T20:35:01;101440;;;11.6;94
61571;BME280;47463;49.884;10.010;2023-04-28T20:40:01;101440;;;11.5;93
61571;BME280;47463;49.884;10.010;2023-04-28T20:45:01;101440;;;11;93
61571;BME280;47463;49.884;10.010;2023-04-28T20:50:01;101420;;;11;93
61571;BME280;47463;49.884;10.010;2023-04-28T20:55:01;101430;;;11;93
61571;BME280;47463;49.884;10.010;2023-04-28T21:00:01;101420;;;11.1;94
61571;BME280;47463;49.884;10.010;2023-04-28T21:05:01;101420;;;11.1;94
61571;BME280;47463;49.884;10.010;2023-04-28T21:10:01;101420;;;10.4;94
61571;BME280;47463;49.884;10.010;2023-04-28T21:15:01;101410;;;10.7;95
61571;BME280;47463;49.884;10.010;2023-04-28T21:20:01;101420;;;11.2;95
61571;BME280;47463;49.884;10.010;2023-04-28T21:25:01;101420;;;11.2;95
61571;BME280;47463;49.884;10.010;2023-04-28T21:30:01;101430;;;11.2;95
61571;BME280;47463;49.884;10.010;2023-04-28T21:35:01;101420;;;11.2;95
61571;BME280;47463;49.884;10.010;2023-04-28T21:40:01;101430;;;11.1;95
61571;BME280;47463;49.884;10.010;2023-04-28T21:45:01;101430;;;11.2;95
61571;BME280;47463;49.884;10.010;2023-04-28T21:50:01;101440;;;11.3;95
61571;BME280;47463;49.884;10.010;2023-04-28T21:55:01;101450;;;11.5;95
61571;BME280;47463;49.884;10.010;2023-04-28T22:00:01;101440;;;11.4;95
61571;BME280;47463;49.884;10.010;2023-04-28T22:05:01;101440;;;10.9;95
61571;BME280;47463;49.884;10.010;2023-04-28T22:10:01;101450;;;10.6;95
61571;BME280;47463;49.884;10.010;2023-04-28T22:15:01;101450;;;11.1;95
61571;BME280;47463;49.884;10.010;2023-04-28T22:20:01;101440;;;11.3;96
61571;BME280;47463;49.884;10.010;2023-04-28T22:25:01;101450;;;11.3;96
61571;BME280;47463;49.884;10.010;2023-04-28T22:30:01;101450;;;10.8;95
61571;BME280;47463;49.884;10.010;2023-04-28T22:35:01;101460;;;10.8;95
61571;BME280;47463;49.884;10.010;2023-04-28T22:40:01;101460;;;11.2;96
61571;BME280;47463;49.884;10.010;2023-04-28T22:45:01;101470;;;11.3;96
61571;BME280;47463;49.884;10.010;2023-04-28T22:50:01;101470;;;11.4;96
61571;BME280;47463;49.884;10.010;2023-04-28T22:55:01;101470;;;11.4;96
61571;BME280;47463;49.884;10.010;2023-04-28T23:00:01;101470;;;11.2;96
61571;BME280;47463;49.884;10.010;2023-04-28T23:05:01;101480;;;11.2;96
61571;BME280;47463;49.884;10.010;2023-04-28T23:10:01;101480;;;11.3;96
61571;BME280;47463;49.884;10.010;2023-04-28T23:15:01;101480;;;11.3;96
61571;BME280;47463;49.884;10.010;2023-04-28T23:20:01;101480;;;10.7;95
61571;BME280;47463;49.884;10.010;2023-04-28T23:25:01;101470;;;10.3;95
61571;BME280;47463;49.884;10.010;2023-04-28T23:30:01;101470;;;10;95
61571;BME280;47463;49.884;10.010;2023-04-28T23:35:01;101460;;;10.1;95
61571;BME280;47463;49.884;10.010;2023-04-28T23:40:01;101470;;;10.3;95
61571;BME280;47463;49.884;10.010;2023-04-28T23:45:01;101470;;;10.1;95
61571;BME280;47463;49.884;10.010;2023-04-28T23:50:01;101460;;;10.1;95
61571;BME280;47463;49.884;10.010;2023-04-28T23:55:01;101460;;;10;95
